Time;durP1;ratioP1;P1;durP2;ratioP2;P2;SDS_P1;SDS_P2;PMS_P1;PMS_P2;Temp;Humidity;BMP_temperature;BMP_pressure;BME280_temperature;BME280_humidity;BME280_pressure;Samples;Min_cycle;Max_cycle;Signal;HPM_P1;HPM_P2
2024/03/11 00:02:21;;;;;;;41.83;23.08;;;8.40;99.90;;;;;;5076160;28;20488;-85
2024/03/11 00:04:47;;;;;;;36.70;22.35;;;8.40;99.90;;;;;;5074545;28;20466;-85
2024/03/11 00:07:15;;;;;;;35.47;22.23;;;8.40;99.90;;;;;;5076756;28;20067;-85
2024/03/11 00:09:44;;;;;;;35.55;21.40;;;8.50;99.90;;;;;;5089918;28;20378;-85
2024/03/11 00:12:10;;;;;;;44.17;23.95;;;8.50;99.90;;;;;;5058805;28;20248;-85
2024/03/11 00:14:39;;;;;;;42.13;23.73;;;8.50;99.90;;;;;;5069767;28;20533;-85
2024/03/11 00:17:05;;;;;;;37.10;22.42;;;8.50;99.90;;;;;;5079227;28;20405;-85
2024/03/11 00:19:31;;;;;;;35.67;21.73;;;8.50;99.90;;;;;;5079390;28;20032;-85
2024/03/11 00:21:59;;;;;;;41.25;25.27;;;8.50;99.90;;;;;;5079826;28;20020;-86
2024/03/11 00:24:25;;;;;;;40.90;24.10;;;8.50;99.90;;;;;;5076923;28;20090;-85
2024/03/11 00:26:51;;;;;;;44.40;24.98;;;8.50;99.90;;;;;;5071289;28;20497;-86
2024/03/11 00:29:18;;;;;;;40.45;22.83;;;8.50;99.90;;;;;;5072056;28;20517;-86
2024/03/11 00:31:43;;;;;;;37.90;22.17;;;8.50;99.90;;;;;;5071188;28;20038;-85
2024/03/11 00:34:10;;;;;;;44.53;23.63;;;8.40;99.90;;;;;;5072878;28;20047;-86
2024/03/11 00:36:36;;;;;;;37.35;22.00;;;8.40;99.90;;;;;;5071725;28;20028;-85
2024/03/11 00:39:03;;;;;;;38.08;22.30;;;8.40;99.90;;;;;;5072287;28;20081;-86
2024/03/11 00:41:29;;;;;;;39.88;22.95;;;8.40;99.90;;;;;;5087431;28;20504;-85
2024/03/11 00:43:55;;;;;;;35.22;22.05;;;8.40;99.90;;;;;;5070731;28;20036;-85
2024/03/11 00:46:21;;;;;;;42.00;23.38;;;8.30;99.90;;;;;;5071004;28;20024;-86
2024/03/11 00:48:47;;;;;;;36.97;22.05;;;8.30;99.90;;;;;;5071044;28;20134;-85
2024/03/11 00:51:14;;;;;;;39.88;22.23;;;8.30;99.90;;;;;;5070381;28;20027;-85
2024/03/11 00:53:40;;;;;;;39.17;22.88;;;8.30;99.90;;;;;;5070968;28;20040;-86
2024/03/11 00:56:08;;;;;;;35.42;21.48;;;8.20;99.90;;;;;;5070471;28;20395;-85
2024/03/11 00:58:36;;;;;;;40.25;24.00;;;8.20;99.90;;;;;;5070815;28;20120;-86
2024/03/11 01:01:03;;;;;;;40.70;24.30;;;8.20;99.90;;;;;;5069921;28;20024;-86
2024/03/11 01:03:29;;;;;;;40.35;23.08;;;8.20;99.90;;;;;;5070549;28;20059;-86
2024/03/11 01:05:56;;;;;;;41.28;22.60;;;8.10;99.90;;;;;;5070199;28;20039;-85
2024/03/11 01:08:22;;;;;;;39.90;23.70;;;8.10;99.90;;;;;;5070598;28;20085;-86
2024/03/11 01:10:48;;;;;;;40.75;22.15;;;8.10;99.90;;;;;;5068991;28;20507;-86
2024/03/11 01:13:14;;;;;;;38.58;22.50;;;8.00;99.90;;;;;;5070603;28;20111;-86
2024/03/11 01:15:39;;;;;;;35.70;21.90;;;8.00;99.90;;;;;;5070259;28;20459;-86
2024/03/11 01:18:05;;;;;;;41.53;22.45;;;8.00;99.90;;;;;;5070443;28;20024;-86
2024/03/11 01:20:31;;;;;;;37.72;21.55;;;8.00;99.90;;;;;;5069635;28;20020;-86
2024/03/11 01:22:57;;;;;;;38.10;22.65;;;8.00;99.90;;;;;;5070173;28;20027;-86
2024/03/11 01:25:23;;;;;;;37.55;23.23;;;8.10;99.90;;;;;;5075374;28;20488;-86
2024/03/11 01:27:49;;;;;;;42.65;22.73;;;8.10;99.90;;;;;;5050427;28;20419;-86
2024/03/11 01:30:15;;;;;;;37.88;23.17;;;8.10;99.90;;;;;;5068156;28;20016;-86
2024/03/11 01:32:44;;;;;;;41.28;23.33;;;8.10;99.90;;;;;;5069952;28;20024;-86
2024/03/11 01:35:11;;;;;;;35.38;22.55;;;8.10;99.90;;;;;;5069816;28;20024;-86
2024/03/11 01:37:37;;;;;;;37.65;21.88;;;8.10;99.90;;;;;;5086791;28;20073;-86
2024/03/11 01:40:03;;;;;;;36.85;22.02;;;8.10;99.90;;;;;;5069233;28;20463;-86
2024/03/11 01:42:29;;;;;;;41.58;23.17;;;8.00;99.90;;;;;;5086626;28;20386;-86
2024/03/11 01:44:54;;;;;;;37.35;22.90;;;8.00;99.90;;;;;;5069767;28;20025;-86
2024/03/11 01:47:24;;;;;;;38.05;22.25;;;8.00;99.90;;;;;;5069629;28;20072;-85
2024/03/11 01:49:52;;;;;;;40.45;21.95;;;8.00;99.90;;;;;;5069329;28;20025;-85
2024/03/11 01:52:26;;;;;;;40.30;23.67;;;8.00;99.90;;;;;;5069251;28;20032;-86
2024/03/11 01:54:55;;;;;;;36.42;22.08;;;7.90;99.90;;;;;;5069664;28;20023;-86
2024/03/11 01:57:22;;;;;;;38.65;22.90;;;7.90;99.90;;;;;;5076886;28;20068;-86
2024/03/11 01:59:51;;;;;;;40.53;22.70;;;7.90;99.90;;;;;;5049303;28;20025;-86
2024/03/11 02:02:20;;;;;;;35.10;21.25;;;8.00;99.90;;;;;;5066329;28;20074;-86
2024/03/11 02:04:47;;;;;;;43.33;24.45;;;8.00;99.90;;;;;;5070624;28;20020;-86
2024/03/11 02:07:14;;;;;;;37.28;22.13;;;8.00;99.90;;;;;;5069104;28;20034;-86
2024/03/11 02:09:40;;;;;;;37.90;22.48;;;8.00;99.90;;;;;;5068840;28;20024;-86
2024/03/11 02:12:08;;;;;;;35.85;21.50;;;8.10;99.90;;;;;;5069092;28;20036;-86
2024/03/11 02:14:35;;;;;;;36.63;21.33;;;8.10;99.90;;;;;;5070608;28;20044;-85
2024/03/11 02:17:01;;;;;;;37.83;22.35;;;8.10;99.90;;;;;;5069125;28;20555;-85
2024/03/11 02:19:27;;;;;;;36.65;21.70;;;8.10;99.90;;;;;;5069049;28;20036;-84
2024/03/11 02:21:52;;;;;;;38.72;22.65;;;8.10;99.90;;;;;;5068978;28;20085;-86
2024/03/11 02:24:18;;;;;;;34.33;20.63;;;8.10;99.90;;;;;;5069076;28;20024;-86
2024/03/11 02:26:47;;;;;;;42.05;23.45;;;8.10;99.90;;;;;;5069109;28;20495;-86
2024/03/11 02:29:19;;;;;;;36.50;21.65;;;8.10;99.90;;;;;;5069284;28;20116;-86
2024/03/11 02:31:45;;;;;;;37.40;22.50;;;8.10;99.90;;;;;;5069169;28;20390;-86
2024/03/11 02:34:11;;;;;;;37.03;23.02;;;8.20;99.90;;;;;;5069031;28;20058;-86
2024/03/11 02:36:42;;;;;;;37.10;22.48;;;8.20;99.90;;;;;;5069033;28;20024;-86
2024/03/11 02:39:07;;;;;;;;;;;8.20;99.90;;;;;;5069784;28;20028;-86
2024/03/11 02:41:36;;;;;;;38.30;21.05;;;8.20;99.90;;;;;;5068490;28;20285;-86
2024/03/11 02:44:03;;;;;;;34.55;21.00;;;8.20;99.90;;;;;;5069182;28;20038;-86
2024/03/11 02:46:32;;;;;;;35.92;21.27;;;8.20;99.90;;;;;;5068968;28;20035;-86
2024/03/11 02:48:57;;;;;;;36.45;21.70;;;8.20;99.90;;;;;;5056134;28;20021;-86
2024/03/11 02:51:23;;;;;;;34.83;21.80;;;8.20;99.90;;;;;;5047863;28;20102;-86
2024/03/11 02:53:50;;;;;;;35.67;21.33;;;8.20;99.90;;;;;;5049191;28;20546;-86
2024/03/11 02:56:16;;;;;;;33.85;21.05;;;8.20;99.90;;;;;;5049123;28;20083;-84
2024/03/11 02:58:42;;;;;;;35.60;20.13;;;8.20;99.90;;;;;;5048614;28;20033;-85
2024/03/11 03:01:07;;;;;;;35.13;21.88;;;8.20;99.90;;;;;;5048171;28;20037;-86
2024/03/11 03:03:34;;;;;;;36.28;20.88;;;8.30;99.90;;;;;;5048757;28;20052;-86
2024/03/11 03:05:59;;;;;;;34.95;21.20;;;8.30;99.90;;;;;;5048601;28;20098;-86
2024/03/11 03:08:25;;;;;;;37.72;22.25;;;8.30;99.90;;;;;;5048798;28;20025;-86
2024/03/11 03:10:51;;;;;;;36.00;22.95;;;8.30;99.90;;;;;;5049755;28;20099;-86
2024/03/11 03:13:17;;;;;;;35.15;20.73;;;8.30;99.90;;;;;;5048400;28;20120;-86
2024/03/11 03:15:43;;;;;;;37.88;20.65;;;8.30;99.90;;;;;;5048666;28;20025;-86
2024/03/11 03:18:08;;;;;;;34.33;19.77;;;8.30;99.90;;;;;;5048598;28;20441;-86
2024/03/11 03:20:35;;;;;;;34.15;21.83;;;8.20;99.90;;;;;;5048334;28;20256;-86
2024/03/11 03:23:01;;;;;;;38.17;21.52;;;8.30;99.90;;;;;;5048270;28;20029;-86
2024/03/11 03:25:32;;;;;;;32.00;19.70;;;8.30;99.90;;;;;;5048557;28;20021;-86
2024/03/11 03:28:02;;;;;;;36.92;21.63;;;8.20;99.90;;;;;;5048448;28;20029;-86
2024/03/11 03:30:30;;;;;;;34.78;20.30;;;8.30;99.90;;;;;;5049281;28;20086;-86
2024/03/11 03:32:57;;;;;;;35.13;20.48;;;8.30;99.90;;;;;;5050069;28;20029;-86
2024/03/11 03:35:23;;;;;;;33.83;20.65;;;8.30;99.90;;;;;;5051635;28;20501;-86
2024/03/11 03:37:48;;;;;;;32.40;20.55;;;8.30;99.90;;;;;;5052073;28;20119;-86
2024/03/11 03:40:17;;;;;;;32.78;19.67;;;8.30;99.90;;;;;;5051115;28;20115;-86
2024/03/11 03:42:46;;;;;;;37.97;21.95;;;8.30;99.90;;;;;;5052141;28;20512;-86
2024/03/11 03:45:13;;;;;;;42.03;23.33;;;8.30;99.90;;;;;;5053451;28;20028;-86
2024/03/11 03:47:39;;;;;;;39.30;22.60;;;8.30;99.90;;;;;;5052626;28;20025;-86
2024/03/11 03:50:05;;;;;;;37.22;22.02;;;8.30;99.90;;;;;;5052953;28;20030;-86
2024/03/11 03:52:31;;;;;;;36.60;20.75;;;8.30;99.90;;;;;;5052356;28;20183;-86
2024/03/11 03:54:56;;;;;;;38.20;21.38;;;8.30;99.90;;;;;;5057579;28;20021;-86
2024/03/11 03:57:22;;;;;;;36.30;21.83;;;8.40;99.90;;;;;;5053181;28;20029;-86
2024/03/11 03:59:53;;;;;;;39.50;22.95;;;8.40;99.90;;;;;;5068366;28;20036;-84
2024/03/11 04:02:18;;;;;;;;;;;8.40;99.90;;;;;;5069119;28;20029;-84
2024/03/11 04:04:44;;;;;;;36.53;20.85;;;8.30;99.90;;;;;;5050683;28;19916;-84
2024/03/11 04:07:10;;;;;;;35.25;20.73;;;8.30;99.90;;;;;;5051545;28;20044;-85
2024/03/11 04:09:38;;;;;;;36.25;20.50;;;8.30;99.90;;;;;;5050710;28;20554;-84
2024/03/11 04:12:06;;;;;;;37.70;22.92;;;8.30;99.90;;;;;;5051664;28;20335;-84
2024/03/11 04:14:32;;;;;;;35.63;21.52;;;8.40;99.90;;;;;;5052219;28;20057;-84
2024/03/11 04:16:58;;;;;;;35.25;20.77;;;8.40;99.90;;;;;;5052217;28;20052;-85
2024/03/11 04:19:25;;;;;;;31.92;19.85;;;8.40;99.90;;;;;;5051336;28;20036;-84
2024/03/11 04:21:53;;;;;;;34.17;20.42;;;8.40;99.90;;;;;;5067469;28;20033;-85
2024/03/11 04:24:22;;;;;;;34.28;21.30;;;8.40;99.90;;;;;;5051456;28;20115;-84
2024/03/11 04:26:47;;;;;;;34.70;20.52;;;8.40;99.90;;;;;;5051194;28;20589;-84
2024/03/11 04:29:13;;;;;;;30.27;18.80;;;8.40;99.90;;;;;;5052480;28;20116;-85
2024/03/11 04:31:41;;;;;;;34.35;20.92;;;8.40;99.90;;;;;;5050560;28;20504;-84
2024/03/11 04:34:10;;;;;;;31.27;19.95;;;8.40;99.90;;;;;;5051004;28;20115;-84
2024/03/11 04:36:36;;;;;;;32.35;20.73;;;8.40;99.90;;;;;;5050891;28;20524;-84
2024/03/11 04:39:04;;;;;;;33.80;19.60;;;8.40;99.90;;;;;;5051145;28;20453;-84
2024/03/11 04:41:30;;;;;;;35.60;21.58;;;8.40;99.90;;;;;;5050514;28;20040;-85
2024/03/11 04:43:57;;;;;;;35.25;20.17;;;8.40;99.90;;;;;;5051151;28;20075;-84
2024/03/11 04:46:23;;;;;;;34.97;20.35;;;8.40;99.90;;;;;;5050788;28;20040;-83
2024/03/11 04:48:48;;;;;;;31.02;19.88;;;8.40;99.90;;;;;;5051871;28;20021;-84
2024/03/11 04:51:14;;;;;;;32.60;19.73;;;8.40;99.90;;;;;;5050289;28;20482;-84
2024/03/11 04:53:40;;;;;;;37.92;22.77;;;8.40;99.90;;;;;;5050407;28;20029;-84
2024/03/11 04:56:06;;;;;;;31.63;20.83;;;8.40;99.90;;;;;;5050745;28;20118;-84
2024/03/11 04:58:32;;;;;;;31.05;18.67;;;8.40;99.90;;;;;;5050445;28;20040;-84
2024/03/11 05:00:58;;;;;;;37.13;22.27;;;8.40;99.90;;;;;;5050221;28;20025;-84
2024/03/11 05:03:24;;;;;;;38.72;21.13;;;8.40;99.90;;;;;;5052288;28;20055;-84
2024/03/11 05:05:49;;;;;;;36.42;19.67;;;8.40;99.90;;;;;;5050275;28;20033;-84
2024/03/11 05:08:15;;;;;;;32.40;18.70;;;8.40;99.90;;;;;;5050563;28;20052;-84
2024/03/11 05:10:41;;;;;;;36.42;20.67;;;8.40;99.90;;;;;;5050012;28;20052;-84
2024/03/11 05:13:07;;;;;;;31.25;20.13;;;8.40;99.90;;;;;;5051599;28;20095;-84
2024/03/11 05:15:33;;;;;;;34.42;19.58;;;8.40;99.90;;;;;;5050081;28;20017;-84
2024/03/11 05:17:59;;;;;;;31.42;19.38;;;8.40;99.90;;;;;;5049917;28;20513;-84
2024/03/11 05:20:25;;;;;;;34.75;19.80;;;8.40;99.90;;;;;;5051089;28;20045;-84
2024/03/11 05:22:51;;;;;;;32.25;19.58;;;8.40;99.90;;;;;;5050131;28;20060;-84
2024/03/11 05:25:19;;;;;;;32.20;19.92;;;8.40;99.90;;;;;;5049802;28;20497;-84
2024/03/11 05:27:46;;;;;;;33.72;19.33;;;8.40;99.90;;;;;;5049760;28;20044;-84
2024/03/11 05:30:12;;;;;;;38.13;21.27;;;8.40;99.90;;;;;;5049355;28;20071;-84
2024/03/11 05:32:38;;;;;;;37.00;20.73;;;8.40;99.90;;;;;;5050192;28;20398;-81
2024/03/11 05:35:04;;;;;;;34.10;20.23;;;8.30;99.90;;;;;;5049599;28;20295;-80
2024/03/11 05:37:33;;;;;;;31.45;19.00;;;8.30;99.90;;;;;;5049469;28;20547;-80
2024/03/11 05:40:05;;;;;;;31.08;18.17;;;8.30;99.90;;;;;;5049223;28;20044;-80
2024/03/11 05:42:32;;;;;;;35.15;21.35;;;8.30;99.90;;;;;;5049637;28;20035;-80
2024/03/11 05:44:58;;;;;;;37.35;21.48;;;8.30;99.90;;;;;;5049448;28;20056;-80
2024/03/11 05:47:25;;;;;;;39.97;23.27;;;8.30;99.90;;;;;;5049571;28;20028;-80
2024/03/11 05:49:52;;;;;;;29.92;20.10;;;8.30;99.90;;;;;;5048911;28;20398;-80
2024/03/11 05:52:20;;;;;;;33.72;19.80;;;8.30;99.90;;;;;;5049469;28;20028;-80
2024/03/11 05:54:50;;;;;;;32.13;19.83;;;8.30;99.90;;;;;;5041421;28;20025;-80
2024/03/11 05:57:23;;;;;;;30.27;19.77;;;8.30;99.90;;;;;;5048947;28;20035;-80
2024/03/11 05:59:50;;;;;;;30.23;18.15;;;8.30;99.90;;;;;;5028900;28;20048;-79
2024/03/11 06:02:16;;;;;;;32.85;20.80;;;8.30;99.90;;;;;;5048958;28;20032;-81
2024/03/11 06:04:42;;;;;;;34.30;19.83;;;8.30;99.90;;;;;;5048583;28;20032;-80
2024/03/11 06:07:09;;;;;;;34.72;21.27;;;8.30;99.90;;;;;;5049025;28;20039;-80
2024/03/11 06:09:37;;;;;;;36.85;19.73;;;8.30;99.90;;;;;;5048984;28;20017;-80
2024/03/11 06:12:05;;;;;;;29.60;19.55;;;8.30;99.90;;;;;;5049408;28;20112;-80
2024/03/11 06:14:31;;;;;;;32.25;19.45;;;8.30;99.90;;;;;;5049111;28;20017;-85
2024/03/11 06:16:58;;;;;;;30.80;20.52;;;8.40;99.90;;;;;;5049721;28;20079;-85
2024/03/11 06:19:23;;;;;;;33.88;19.85;;;8.30;99.90;;;;;;5049894;28;20405;-85
2024/03/11 06:21:49;;;;;;;36.10;20.20;;;8.40;99.90;;;;;;5049667;28;20021;-85
2024/03/11 06:24:16;;;;;;;36.85;22.88;;;8.40;99.90;;;;;;5050789;28;20051;-85
2024/03/11 06:26:45;;;;;;;33.15;19.77;;;8.40;99.90;;;;;;5049327;28;20057;-85
2024/03/11 06:29:10;;;;;;;33.47;19.77;;;8.40;99.90;;;;;;5049325;28;20030;-85
2024/03/11 06:31:39;;;;;;;29.83;18.90;;;8.40;99.90;;;;;;5051241;28;20025;-85
2024/03/11 06:34:06;;;;;;;31.98;19.80;;;8.50;99.90;;;;;;5049621;28;20029;-85
2024/03/11 06:36:33;;;;;;;35.33;21.00;;;8.50;99.90;;;;;;5049732;28;20282;-85
2024/03/11 06:38:58;;;;;;;31.65;20.50;;;8.50;99.90;;;;;;5049557;28;20029;-85
2024/03/11 06:41:25;;;;;;;33.20;18.90;;;8.50;99.90;;;;;;5049108;28;20028;-85
2024/03/11 06:43:51;;;;;;;34.15;20.83;;;8.60;99.90;;;;;;5049507;28;20439;-86
2024/03/11 06:46:17;;;;;;;36.65;21.63;;;8.60;99.90;;;;;;5049963;28;20171;-86
2024/03/11 06:48:43;;;;;;;30.70;19.80;;;8.70;99.90;;;;;;5050064;28;20064;-85
2024/03/11 06:51:10;;;;;;;37.60;20.40;;;8.70;99.90;;;;;;5049670;28;20025;-85
2024/03/11 06:53:36;;;;;;;34.95;20.85;;;8.70;99.90;;;;;;5049550;28;20021;-86
2024/03/11 06:56:06;;;;;;;40.53;22.50;;;8.70;99.90;;;;;;5051227;28;20482;-86
2024/03/11 06:58:32;;;;;;;32.50;19.98;;;8.80;99.90;;;;;;5051058;28;20035;-86
2024/03/11 07:00:58;;;;;;;34.75;21.05;;;8.80;99.90;;;;;;5048939;28;20477;-86
2024/03/11 07:03:29;;;;;;;34.53;19.10;;;8.80;99.90;;;;;;5049606;28;20021;-86
2024/03/11 07:05:58;;;;;;;30.38;19.27;;;8.90;99.90;;;;;;5049427;28;20512;-86
2024/03/11 07:08:27;;;;;;;37.15;20.30;;;8.90;99.90;;;;;;5050131;28;20017;-86
2024/03/11 07:10:53;;;;;;;30.23;18.65;;;9.00;99.90;;;;;;5053379;28;20048;-86
2024/03/11 07:13:19;;;;;;;36.83;20.48;;;9.00;99.90;;;;;;5053387;28;20120;-87
2024/03/11 07:15:45;;;;;;;27.67;18.42;;;9.00;99.90;;;;;;5053351;28;20115;-87
2024/03/11 07:18:10;;;;;;;31.17;19.08;;;9.10;99.90;;;;;;5053269;28;20029;-87
2024/03/11 07:20:36;;;;;;;31.13;19.98;;;9.10;99.90;;;;;;5054093;28;20100;-86
2024/03/11 07:23:08;;;;;;;34.60;21.30;;;9.10;99.90;;;;;;5053627;28;20025;-86
2024/03/11 07:25:34;;;;;;;37.55;22.85;;;9.20;99.90;;;;;;5052580;28;20116;-84
2024/03/11 07:28:00;;;;;;;31.23;19.58;;;9.20;99.90;;;;;;5052558;28;20136;-86
2024/03/11 07:30:26;;;;;;;31.17;18.98;;;9.30;99.90;;;;;;5052358;28;20079;-85
2024/03/11 07:33:14;;;;;;;35.80;22.08;;;9.40;99.90;;;;;;5054435;28;20029;-86
2024/03/11 07:35:44;;;;;;;40.15;20.77;;;9.50;99.90;;;;;;5054879;28;20021;-84
2024/03/11 07:38:11;;;;;;;30.83;19.90;;;9.50;99.90;;;;;;5053541;28;20025;-84
2024/03/11 07:40:37;;;;;;;35.80;20.85;;;9.60;99.90;;;;;;5051675;28;20028;-85
2024/03/11 07:43:03;;;;;;;32.70;20.00;;;9.60;99.90;;;;;;5069210;28;20112;-84
2024/03/11 07:45:34;;;;;;;35.08;21.02;;;9.50;99.90;;;;;;5069284;28;20553;-84
2024/03/11 07:48:01;;;;;;;33.38;21.27;;;9.50;99.90;;;;;;5054198;28;20161;-84
2024/03/11 07:50:27;;;;;;;28.42;19.63;;;9.50;99.90;;;;;;5053129;28;20021;-85
2024/03/11 07:52:54;;;;;;;30.05;19.85;;;9.50;99.90;;;;;;5052987;28;20021;-87
2024/03/11 07:55:24;;;;;;;33.88;21.17;;;9.50;99.90;;;;;;5053760;28;20017;-85
2024/03/11 07:57:53;;;;;;;35.80;20.27;;;9.50;99.90;;;;;;5054435;28;20025;-86
2024/03/11 08:00:20;;;;;;;34.78;20.90;;;9.50;99.90;;;;;;5053132;28;20029;-85
2024/03/11 08:02:47;;;;;;;29.60;19.30;;;9.40;99.90;;;;;;5053600;28;20478;-86
2024/03/11 08:05:13;;;;;;;32.83;19.38;;;9.40;99.90;;;;;;5054764;28;20033;-86
2024/03/11 08:07:47;;;;;;;40.80;22.48;;;9.50;99.90;;;;;;5056503;28;20028;-86
2024/03/11 08:10:13;;;;;;;41.25;22.40;;;9.40;99.90;;;;;;5055381;28;20115;-86
2024/03/11 08:12:41;;;;;;;35.38;21.35;;;9.30;99.90;;;;;;5058855;28;20024;-86
2024/03/11 08:15:10;;;;;;;40.17;21.73;;;9.20;99.90;;;;;;5064940;28;20017;-85
2024/03/11 08:17:36;;;;;;;39.10;22.67;;;9.30;99.90;;;;;;5064021;28;20040;-85
2024/03/11 08:20:04;;;;;;;41.17;22.90;;;9.30;99.90;;;;;;5062921;28;20025;-86
2024/03/11 08:22:30;;;;;;;33.08;20.73;;;9.20;99.90;;;;;;5062737;28;20028;-86
2024/03/11 08:24:56;;;;;;;34.05;21.52;;;9.20;99.90;;;;;;5066910;28;20493;-86
2024/03/11 08:27:22;;;;;;;37.67;22.58;;;9.20;99.90;;;;;;5070300;28;20032;-86
2024/03/11 08:29:48;;;;;;;41.35;24.73;;;9.30;99.90;;;;;;5072226;28;20029;-86
2024/03/11 08:32:14;;;;;;;35.67;22.30;;;9.30;99.90;;;;;;5069759;28;20021;-85
2024/03/11 08:34:40;;;;;;;38.20;23.83;;;9.30;99.90;;;;;;5071370;28;20081;-86
2024/03/11 08:37:07;;;;;;;35.67;22.63;;;9.30;99.90;;;;;;5069467;28;20040;-86
2024/03/11 08:39:33;;;;;;;39.42;23.08;;;9.30;99.90;;;;;;5063209;28;20038;-86
2024/03/11 08:41:59;;;;;;;35.53;22.88;;;9.40;99.90;;;;;;5066713;28;20025;-86
2024/03/11 08:44:29;;;;;;;37.80;23.48;;;9.60;99.90;;;;;;5062702;28;20056;-86
2024/03/11 08:46:55;;;;;;;35.17;22.88;;;9.70;99.90;;;;;;5065048;28;20021;-86
2024/03/11 08:49:23;;;;;;;35.25;21.52;;;9.90;99.90;;;;;;5058093;28;20025;-86
2024/03/11 08:51:49;;;;;;;35.13;22.83;;;10.00;99.90;;;;;;5072137;28;20017;-86
2024/03/11 08:54:14;;;;;;;35.50;21.35;;;10.20;99.90;;;;;;5069493;28;20459;-86
2024/03/11 08:56:40;;;;;;;36.90;21.92;;;11.00;99.90;;;;;;5052122;28;20024;-86
2024/03/11 08:59:10;;;;;;;33.85;22.00;;;11.80;99.90;;;;;;5051495;28;20123;-87
2024/03/11 09:01:40;;;;;;;33.97;20.83;;;12.20;99.90;;;;;;5052482;28;20052;-86
2024/03/11 09:04:10;;;;;;;29.27;20.30;;;13.10;99.90;;;;;;5062357;28;20107;-87
2024/03/11 09:06:41;;;;;;;28.98;18.05;;;14.60;99.90;;;;;;5052132;28;20029;-87
2024/03/11 09:09:08;;;;;;;25.17;17.33;;;16.10;99.90;;;;;;5052363;28;20025;-87
2024/03/11 09:11:34;;;;;;;23.00;17.17;;;17.10;99.90;;;;;;5051716;28;20025;-86
2024/03/11 09:13:59;;;;;;;25.38;18.02;;;16.90;97.70;;;;;;5054787;28;20079;-87
2024/03/11 09:16:27;;;;;;;22.10;17.45;;;16.20;97.70;;;;;;5052548;28;20052;-87
2024/03/11 09:18:53;;;;;;;25.58;19.48;;;15.80;98.70;;;;;;5066772;28;20386;-87
2024/03/11 09:21:21;;;;;;;24.00;18.92;;;15.50;99.20;;;;;;5049135;28;20025;-86
2024/03/11 09:23:47;;;;;;;25.73;19.70;;;15.00;99.90;;;;;;5049397;28;20394;-86
2024/03/11 09:26:13;;;;;;;24.85;18.65;;;14.50;99.90;;;;;;5048987;28;20029;-86
2024/03/11 09:28:39;;;;;;;26.77;19.58;;;14.20;99.90;;;;;;5050992;28;20112;-86
2024/03/11 09:31:04;;;;;;;33.05;22.30;;;13.80;99.90;;;;;;5051249;28;20036;-86
2024/03/11 09:33:30;;;;;;;28.83;18.98;;;13.50;99.90;;;;;;5053962;28;20522;-86
2024/03/11 09:35:55;;;;;;;27.48;20.23;;;13.30;99.90;;;;;;5053254;28;20067;-87
2024/03/11 09:38:31;;;;;;;29.00;20.90;;;13.30;99.90;;;;;;5054508;28;20078;-89
2024/03/11 09:40:58;;;;;;;27.40;19.70;;;13.30;99.90;;;;;;5053200;28;20023;-87
2024/03/11 09:44:26;;;;;;;29.20;21.20;;;13.40;99.90;;;;;;5053392;28;20446;-82
2024/03/11 09:47:00;;;;;;;30.67;21.63;;;13.30;99.90;;;;;;4990672;28;20111;-82
2024/03/11 09:49:26;;;;;;;31.58;20.63;;;13.00;99.90;;;;;;4985869;28;20376;-83
2024/03/11 09:51:54;;;;;;;26.60;18.42;;;12.90;99.90;;;;;;5051007;28;20110;-81
2024/03/11 09:54:37;;;;;;;26.20;18.60;;;13.00;99.90;;;;;;5053255;28;20025;-81
2024/03/11 09:57:06;;;;;;;26.92;19.45;;;13.20;99.90;;;;;;5051485;28;20025;-82
2024/03/11 09:59:37;;;;;;;25.17;18.60;;;13.80;99.90;;;;;;5051067;28;20068;-83
2024/03/11 10:02:04;;;;;;;26.27;19.50;;;14.80;99.90;;;;;;5034494;28;20126;-82
2024/03/11 10:04:31;;;;;;;24.60;18.42;;;15.70;99.30;;;;;;5052174;28;20101;-83
2024/03/11 10:06:57;;;;;;;23.58;17.30;;;16.30;97.50;;;;;;5051081;28;20145;-86
2024/03/11 10:09:24;;;;;;;19.83;16.55;;;16.20;97.70;;;;;;5051088;28;20028;-86
2024/03/11 10:12:08;;;;;;;21.63;17.85;;;17.70;96.10;;;;;;5052246;28;20067;-87
2024/03/11 10:14:34;;;;;;;21.05;16.65;;;19.40;92.70;;;;;;5052739;28;20021;-87
2024/03/11 10:17:24;;;;;;;18.45;16.05;;;20.60;90.60;;;;;;5051029;28;20108;-87
2024/03/11 10:19:58;;;;;;;17.35;14.98;;;21.50;85.20;;;;;;5051300;28;20017;-88
2024/03/11 10:22:26;;;;;;;15.68;12.27;;;22.70;80.20;;;;;;5051711;28;20021;-87
2024/03/11 10:24:54;;;;;;;12.45;11.13;;;22.70;76.40;;;;;;5051517;28;20049;-86
2024/03/11 10:28:06;;;;;;;11.18;10.02;;;22.80;73.00;;;;;;5052288;28;20126;-91
2024/03/11 10:31:23;;;;;;;10.38;9.23;;;21.20;74.30;;;;;;5051158;28;20036;-89
2024/03/11 10:34:39;;;;;;;11.02;9.32;;;20.10;78.90;;;;;;5064893;28;20021;-88
2024/03/11 10:37:24;;;;;;;11.30;9.38;;;18.90;80.50;;;;;;5050242;28;20120;-86
2024/03/11 10:39:50;;;;;;;13.45;11.30;;;17.80;82.80;;;;;;5051126;28;20056;-86
2024/03/11 10:42:28;;;;;;;11.43;9.30;;;17.00;84.50;;;;;;5052307;28;20116;-85
2024/03/11 10:44:54;;;;;;;9.35;8.15;;;16.20;88.20;;;;;;5055821;28;20422;-86
2024/03/11 10:47:23;;;;;;;12.07;9.35;;;16.00;89.00;;;;;;5055671;28;20025;-86
2024/03/11 10:49:50;;;;;;;11.15;9.20;;;15.80;89.10;;;;;;5055173;28;20013;-86
2024/03/11 10:52:21;;;;;;;12.73;10.20;;;15.70;90.10;;;;;;5053693;28;20051;-87
2024/03/11 10:54:54;;;;;;;14.02;10.60;;;15.40;90.00;;;;;;5053735;28;20017;-86
2024/03/11 10:57:34;;;;;;;16.77;10.00;;;14.80;91.00;;;;;;5071883;28;20024;-86
2024/03/11 11:00:02;;;;;;;14.60;10.00;;;14.80;92.20;;;;;;5054691;28;20025;-86
2024/03/11 11:02:32;;;;;;;12.93;9.98;;;14.70;91.80;;;;;;5055923;28;20493;-86
2024/03/11 11:05:01;;;;;;;11.52;9.35;;;14.50;92.70;;;;;;5056000;28;20102;-86
2024/03/11 11:07:30;;;;;;;14.25;10.02;;;14.60;92.60;;;;;;5055638;28;20433;-86
2024/03/11 11:10:03;;;;;;;15.50;10.40;;;14.40;92.40;;;;;;5055462;28;20544;-86
2024/03/11 11:12:29;;;;;;;13.55;9.70;;;14.20;93.10;;;;;;5056626;28;20029;-84
2024/03/11 11:15:05;;;;;;;18.02;10.23;;;14.20;93.20;;;;;;5055946;28;20021;-86
2024/03/11 11:17:37;;;;;;;13.10;9.40;;;14.20;92.80;;;;;;5056142;28;20029;-85
2024/03/11 11:20:29;;;;;;;10.35;8.63;;;14.00;93.20;;;;;;5054276;28;20032;-85
2024/03/11 11:22:50;;;;;;;21.35;10.18;;;13.90;94.20;;;;;;5054832;28;20025;-86
2024/03/11 11:25:42;;;;;;;16.60;10.65;;;14.10;93.60;;;;;;5055097;28;20395;-86
2024/03/11 11:28:13;;;;;;;20.67;15.93;;;13.90;93.90;;;;;;5054885;28;20029;-86
2024/03/11 11:30:48;;;;;;;18.05;13.18;;;13.90;94.50;;;;;;5054895;28;20029;-86
2024/03/11 11:33:56;;;;;;;17.15;12.35;;;14.00;94.60;;;;;;5055001;28;20021;-85
2024/03/11 11:36:53;;;;;;;18.70;11.20;;;14.20;93.70;;;;;;5054323;28;20056;-85
2024/03/11 11:39:27;;;;;;;13.65;9.48;;;13.90;94.00;;;;;;5054244;28;20027;-85
2024/03/11 11:41:54;;;;;;;11.32;8.68;;;14.20;94.30;;;;;;5055323;28;20029;-85
2024/03/11 11:44:26;;;;;;;12.32;8.20;;;14.10;93.60;;;;;;5054650;28;20698;-86
2024/03/11 11:46:52;;;;;;;13.98;8.93;;;14.10;93.70;;;;;;5054149;28;20087;-86
2024/03/11 11:49:19;;;;;;;11.23;7.40;;;14.10;93.70;;;;;;5054966;28;20025;-85
2024/03/11 11:51:46;;;;;;;9.30;7.20;;;14.10;94.10;;;;;;5053315;28;20021;-84
2024/03/11 11:54:25;;;;;;;10.27;7.45;;;14.10;93.70;;;;;;5051098;28;20048;-83
2024/03/11 11:57:14;;;;;;;11.18;7.97;;;13.90;93.70;;;;;;5067146;28;20040;-84
2024/03/11 11:59:46;;;;;;;8.57;6.65;;;13.70;94.20;;;;;;5070044;28;20461;-85
2024/03/11 12:02:27;;;;;;;10.02;6.85;;;13.60;94.20;;;;;;5071710;28;20360;-84
2024/03/11 12:05:00;;;;;;;7.68;5.68;;;13.70;93.80;;;;;;5055167;28;20716;-86
2024/03/11 12:07:28;;;;;;;7.80;6.03;;;14.10;93.70;;;;;;5055740;28;20564;-85
2024/03/11 12:09:59;;;;;;;8.02;6.47;;;14.90;93.10;;;;;;5053518;28;20077;-85
2024/03/11 12:12:33;;;;;;;8.57;6.38;;;15.60;91.30;;;;;;5053641;28;20075;-85
2024/03/11 12:14:59;;;;;;;8.50;5.45;;;17.30;87.40;;;;;;5054758;28;20104;-85
2024/03/11 12:17:25;;;;;;;6.15;5.50;;;19.10;82.60;;;;;;5054389;28;20033;-86
2024/03/11 12:22:56;;;;;;;6.45;5.30;;;21.20;76.80;;;;;;5052810;28;20037;-86
2024/03/11 12:25:22;;;;;;;4.55;4.15;;;20.00;76.10;;;;;;5052378;28;20025;-85
2024/03/11 12:28:07;;;;;;;5.15;4.65;;;19.20;79.10;;;;;;5052706;28;20025;-84
2024/03/11 12:30:38;;;;;;;4.68;4.18;;;18.20;80.40;;;;;;5052922;28;20112;-85
2024/03/11 12:33:07;;;;;;;;;;;17.30;82.80;;;;;;5053511;28;20013;-85
2024/03/11 12:35:37;;;;;;;6.90;5.68;;;16.60;84.10;;;;;;5053551;28;20348;-85
2024/03/11 12:38:07;;;;;;;6.45;5.18;;;16.30;86.10;;;;;;5053807;28;20029;-85
2024/03/11 12:40:42;;;;;;;5.97;5.38;;;16.00;87.70;;;;;;5053228;28;20095;-86
2024/03/11 12:43:19;;;;;;;4.72;3.97;;;16.50;84.80;;;;;;5052142;28;20500;-85
2024/03/11 12:46:00;;;;;;;5.13;4.18;;;16.70;85.30;;;;;;5051443;28;20115;-85
2024/03/11 12:48:28;;;;;;;7.20;4.30;;;16.90;86.40;;;;;;5067145;28;20360;-84